Time;durP1;ratioP1;P1;durP2;ratioP2;P2;SDS_P1;SDS_P2;PMS_P1;PMS_P2;Temp;Humidity;BMP_temperature;BMP_pressure;BME280_temperature;BME280_humidity;BME280_pressure;Samples;Min_cycle;Max_cycle;Signal;HPM_P1;HPM_P2
2023/06/12 00:00:28;;;;;;;11.20;6.50;;;;;;;22.51;45.55;101671.22;6096309;19;20035;-72
2023/06/12 00:02:34;;;;;;;11.43;6.07;;;;;;;22.45;45.53;101669.03;6101224;19;20681;-72
2023/06/12 00:04:43;;;;;;;10.18;6.75;;;;;;;22.41;45.62;101667.56;6093868;19;20461;-72
2023/06/12 00:06:48;;;;;;;9.43;6.28;;;;;;;22.38;45.93;101666.00;6093419;19;20007;-73
2023/06/12 00:08:55;;;;;;;10.02;6.53;;;;;;;22.40;45.71;101665.84;6102233;19;20066;-71
2023/06/12 00:11:00;;;;;;;9.48;6.32;;;;;;;22.37;45.17;101660.75;6096737;19;20752;-72
2023/06/12 00:13:06;;;;;;;9.93;6.22;;;;;;;22.32;45.46;101666.44;6100318;19;20015;-72
2023/06/12 00:15:14;;;;;;;13.32;7.50;;;;;;;22.29;45.42;101661.34;6101477;19;20006;-71
2023/06/12 00:17:20;;;;;;;10.00;6.53;;;;;;;22.25;45.64;101663.41;6102095;19;20534;-72
2023/06/12 00:19:27;;;;;;;8.02;5.97;;;;;;;22.25;45.39;101658.06;6101857;19;20015;-71
2023/06/12 00:21:32;;;;;;;10.82;6.70;;;;;;;22.24;45.54;101667.03;6104846;19;20435;-72
2023/06/12 00:23:37;;;;;;;9.50;6.35;;;;;;;22.18;45.28;101662.13;6096742;19;20010;-72
2023/06/12 00:25:43;;;;;;;8.68;6.35;;;;;;;22.17;45.43;101660.44;6104278;19;20014;-73
2023/06/12 00:27:48;;;;;;;10.02;6.30;;;;;;;22.17;45.35;101668.47;6103753;19;20011;-72
2023/06/12 00:29:53;;;;;;;9.23;5.57;;;;;;;22.11;45.63;101666.22;6104195;19;20490;-72
2023/06/12 00:32:01;;;;;;;9.55;5.93;;;;;;;22.03;45.80;101669.50;6103855;19;20538;-72
2023/06/12 00:34:07;;;;;;;9.57;6.90;;;;;;;21.99;45.95;101670.72;6101630;19;20718;-73
2023/06/12 00:36:12;;;;;;;9.45;5.90;;;;;;;21.98;46.31;101668.13;6102941;19;20014;-71
2023/06/12 00:38:18;;;;;;;10.07;6.80;;;;;;;21.91;45.99;101668.59;6098020;19;20014;-72
2023/06/12 00:40:25;;;;;;;13.13;7.53;;;;;;;21.83;46.40;101670.16;6101308;19;20006;-73
2023/06/12 00:42:33;;;;;;;9.77;6.05;;;;;;;21.76;46.27;101674.25;6100047;19;20474;-73
2023/06/12 00:44:38;;;;;;;9.25;6.60;;;;;;;21.79;46.24;101674.03;6097486;19;20050;-72
2023/06/12 00:46:44;;;;;;;9.10;6.47;;;;;;;21.73;46.26;101674.50;6101843;19;20027;-71
2023/06/12 00:48:53;;;;;;;12.05;6.70;;;;;;;21.67;46.44;101675.81;6097693;19;20019;-71
2023/06/12 00:51:01;;;;;;;10.20;6.10;;;;;;;21.62;46.78;101678.81;6099685;19;20010;-71
2023/06/12 00:53:07;;;;;;;8.52;6.18;;;;;;;21.58;46.84;101676.47;6092318;19;20003;-71
2023/06/12 00:55:13;;;;;;;9.00;6.10;;;;;;;21.54;46.69;101683.00;6101249;19;20009;-72
2023/06/12 00:57:18;;;;;;;11.95;6.57;;;;;;;;;;6100691;19;20007;-73
2023/06/12 00:59:23;;;;;;;10.73;6.35;;;;;;;21.48;46.88;101693.22;6100646;19;20007;-71
2023/06/12 01:01:29;;;;;;;10.60;6.30;;;;;;;21.43;47.00;101684.66;6100278;19;20031;-73
2023/06/12 01:03:34;;;;;;;10.02;6.00;;;;;;;21.43;47.05;101691.81;6098685;19;20652;-71
2023/06/12 01:05:45;;;;;;;9.65;6.20;;;;;;;21.39;47.17;101690.34;6100291;19;20006;-72
2023/06/12 01:07:57;;;;;;;9.40;6.20;;;;;;;21.37;47.47;101686.88;6093974;19;20009;-72
2023/06/12 01:10:11;;;;;;;10.68;6.53;;;;;;;21.36;46.95;101687.88;6100189;19;20098;-72
2023/06/12 01:12:18;;;;;;;9.70;6.15;;;;;;;21.32;47.47;101689.03;6101056;19;20376;-72
2023/06/12 01:14:24;;;;;;;9.10;6.15;;;;;;;21.30;47.19;101688.28;6098679;19;20097;-72
2023/06/12 01:16:32;;;;;;;10.68;6.43;;;;;;;21.34;46.88;101679.09;6098034;19;20017;-71
2023/06/12 01:18:37;;;;;;;9.73;5.85;;;;;;;21.26;47.70;101688.50;6101177;19;20582;-72
2023/06/12 01:20:45;;;;;;;10.13;5.90;;;;;;;21.20;47.59;101688.13;6101727;19;20010;-72
2023/06/12 01:22:56;;;;;;;9.48;5.78;;;;;;;21.15;47.82;101688.44;6097258;19;20019;-72
2023/06/12 01:25:26;;;;;;;9.50;6.35;;;;;;;21.13;47.95;101692.19;6098560;19;20019;-71
2023/06/12 01:27:59;;;;;;;9.70;6.65;;;;;;;21.07;48.19;101696.16;6101264;19;20014;-71
2023/06/12 01:30:23;;;;;;;10.35;6.20;;;;;;;21.05;48.55;101688.22;6094078;19;20678;-73
2023/06/12 01:32:33;;;;;;;10.35;6.65;;;;;;;21.04;48.19;101696.38;6098444;19;20031;-72
2023/06/12 01:34:50;;;;;;;11.63;6.38;;;;;;;20.99;48.26;101696.69;6097283;19;20024;-73
2023/06/12 01:37:01;;;;;;;9.05;5.88;;;;;;;20.96;48.54;101701.41;6098136;19;20019;-71
2023/06/12 01:39:08;;;;;;;11.73;6.18;;;;;;;20.94;48.69;101698.00;6097076;19;20007;-73
2023/06/12 01:41:15;;;;;;;9.07;5.90;;;;;;;20.92;48.92;101700.75;6095996;19;20011;-71
2023/06/12 01:43:20;;;;;;;11.57;6.20;;;;;;;20.86;48.81;101701.19;6098401;19;20503;-72
2023/06/12 01:45:25;;;;;;;9.18;6.43;;;;;;;20.83;48.73;101696.06;6099667;19;20007;-72
2023/06/12 01:47:33;;;;;;;8.77;6.28;;;;;;;20.83;48.85;101702.25;6101476;19;20121;-74
2023/06/12 01:49:38;;;;;;;9.95;5.63;;;;;;;20.81;48.94;101692.66;6092832;19;20394;-73
2023/06/12 01:51:44;;;;;;;10.27;5.75;;;;;;;20.79;49.27;101695.41;6098344;19;20284;-73
2023/06/12 01:53:50;;;;;;;11.02;6.15;;;;;;;20.76;49.08;101697.47;6093827;19;20023;-73
2023/06/12 01:55:56;;;;;;;10.15;6.03;;;;;;;20.71;49.18;101692.44;6098463;19;20038;-73
2023/06/12 01:58:01;;;;;;;9.93;6.25;;;;;;;20.68;49.17;101702.47;6096969;19;20043;-72
2023/06/12 02:00:10;;;;;;;8.95;6.20;;;;;;;20.70;49.58;101700.56;6096134;19;20372;-72
2023/06/12 02:02:17;;;;;;;10.10;6.60;;;;;;;20.65;49.70;101702.69;6096843;19;20102;-72
2023/06/12 02:04:27;;;;;;;9.98;6.40;;;;;;;20.59;49.66;101702.16;6095809;19;20003;-71
2023/06/12 02:06:33;;;;;;;10.68;6.50;;;;;;;20.58;49.61;101705.78;6096513;19;20489;-71
2023/06/12 02:08:38;;;;;;;10.13;6.65;;;;;;;20.51;50.13;101706.25;6101214;19;20452;-72
2023/06/12 02:10:44;;;;;;;10.60;5.80;;;;;;;20.47;50.36;101704.78;6099729;19;20010;-73
2023/06/12 02:12:50;;;;;;;10.25;6.70;;;;;;;20.37;50.38;101704.53;6102115;19;20501;-72
2023/06/12 02:14:55;;;;;;;10.98;6.10;;;;;;;20.33;50.51;101698.56;6102664;19;20057;-72
2023/06/12 02:17:02;;;;;;;8.95;5.90;;;;;;;20.33;50.71;101708.41;6098169;19;20502;-71
2023/06/12 02:19:07;;;;;;;9.35;5.93;;;;;;;20.30;51.28;101708.59;6099619;19;20080;-72
2023/06/12 02:21:15;;;;;;;9.85;6.22;;;;;;;20.23;51.32;101708.16;6098232;19;20014;-73
2023/06/12 02:23:22;;;;;;;9.98;6.38;;;;;;;20.20;51.70;101707.53;6100270;19;20021;-72
2023/06/12 02:25:27;;;;;;;10.32;6.80;;;;;;;20.17;51.76;101705.91;6097387;19;20010;-71
2023/06/12 02:27:32;;;;;;;10.10;6.30;;;;;;;20.13;51.60;101699.91;6098414;19;20456;-72
2023/06/12 02:29:37;;;;;;;8.30;5.43;;;;;;;20.08;52.33;101703.84;6099436;19;20471;-72
2023/06/12 02:31:42;;;;;;;9.95;6.10;;;;;;;20.01;51.97;101699.88;6101308;19;20019;-72
2023/06/12 02:33:48;;;;;;;9.82;6.50;;;;;;;19.99;52.96;101697.31;6100392;19;20003;-72
2023/06/12 02:35:56;;;;;;;11.15;6.75;;;;;;;19.96;53.19;101702.88;6099744;19;20047;-72
2023/06/12 02:38:03;;;;;;;13.27;6.93;;;;;;;19.93;53.04;101705.72;6100392;19;20014;-72
2023/06/12 02:40:10;;;;;;;11.02;6.50;;;;;;;19.85;53.37;101694.69;6099322;19;20186;-73
2023/06/12 02:42:19;;;;;;;11.18;6.75;;;;;;;19.82;53.79;101701.09;6098247;19;20006;-72
2023/06/12 02:44:24;;;;;;;9.70;6.57;;;;;;;19.82;53.30;101697.56;6097104;19;20511;-72
2023/06/12 02:46:31;;;;;;;10.68;6.25;;;;;;;19.82;53.60;101697.56;6098018;19;20088;-73
2023/06/12 02:48:37;;;;;;;11.15;6.82;;;;;;;19.80;53.19;101694.13;6095966;19;20043;-73
2023/06/12 02:50:42;;;;;;;9.38;6.28;;;;;;;19.77;53.68;101695.19;6097047;19;20003;-73
2023/06/12 02:52:48;;;;;;;9.85;6.60;;;;;;;19.77;53.84;101695.19;6092618;19;20011;-73
2023/06/12 02:54:58;;;;;;;12.90;7.03;;;;;;;19.77;53.55;101697.84;6095813;19;20793;-71
2023/06/12 02:57:07;;;;;;;12.13;6.95;;;;;;;19.80;53.27;101699.47;6089024;19;20015;-72
2023/06/12 02:59:12;;;;;;;9.50;6.22;;;;;;;19.76;53.44;101688.16;6095865;19;20015;-72
2023/06/12 03:01:20;;;;;;;9.45;6.63;;;;;;;19.72;53.62;101691.97;6096252;19;20010;-71
2023/06/12 03:03:25;;;;;;;9.40;6.55;;;;;;;19.72;53.45;101686.63;6101435;19;20477;-72
2023/06/12 03:05:30;;;;;;;9.57;6.20;;;;;;;19.71;53.21;101691.13;6098850;19;20106;-72
2023/06/12 03:07:36;;;;;;;10.90;7.03;;;;;;;19.73;53.49;101693.69;6097763;19;20201;-73
2023/06/12 03:09:42;;;;;;;9.75;6.43;;;;;;;19.78;53.78;101694.25;6103319;19;20024;-72
2023/06/12 03:11:55;;;;;;;11.55;6.10;;;;;;;19.73;53.53;101693.69;6096615;19;20641;-72
2023/06/12 03:14:00;;;;;;;10.45;6.28;;;;;;;19.66;53.97;101692.34;6097369;19;20021;-71
2023/06/12 03:16:09;;;;;;;10.15;6.53;;;;;;;19.62;54.23;101701.53;6099419;19;20014;-71
2023/06/12 03:18:17;;;;;;;9.15;6.57;;;;;;;19.64;54.51;101697.81;6099321;19;20010;-73
2023/06/12 03:20:24;;;;;;;11.82;6.78;;;;;;;19.57;54.31;101699.16;6099562;19;20010;-71
2023/06/12 03:22:29;;;;;;;11.02;6.88;;;;;;;19.58;54.90;101692.84;6099960;19;20500;-71
2023/06/12 03:24:37;;;;;;;11.45;6.25;;;;;;;19.52;54.65;101699.44;6098204;19;20091;-71
2023/06/12 03:26:42;;;;;;;11.60;6.82;;;;;;;19.53;54.64;101702.94;6097919;19;20065;-73
2023/06/12 03:28:50;;;;;;;10.93;6.38;;;;;;;19.52;54.96;101707.44;6098818;19;20014;-71
2023/06/12 03:30:55;;;;;;;12.32;6.90;;;;;;;19.48;54.86;101699.72;6099007;19;20007;-74
2023/06/12 03:33:00;;;;;;;9.43;6.15;;;;;;;19.49;54.76;101707.63;6100661;19;20351;-73
2023/06/12 03:35:06;;;;;;;9.10;6.43;;;;;;;19.46;55.00;101707.00;6101714;19;20013;-73
2023/06/12 03:37:11;;;;;;;10.60;6.28;;;;;;;19.46;54.79;101710.50;6101113;19;20033;-74
2023/06/12 03:39:16;;;;;;;11.00;7.05;;;;;;;19.41;54.86;101715.28;6102009;19;20010;-73
2023/06/12 03:41:26;;;;;;;13.35;6.78;;;;;;;19.41;54.94;101711.75;6100507;19;20030;-72
2023/06/12 03:43:33;;;;;;;10.85;6.43;;;;;;;19.39;54.68;101711.84;6098373;19;20013;-73
2023/06/12 03:45:41;;;;;;;11.40;6.65;;;;;;;19.36;55.18;101719.19;6100939;19;20098;-73
2023/06/12 03:47:46;;;;;;;11.18;6.60;;;;;;;19.32;54.71;101720.31;6100063;19;20003;-72
2023/06/12 03:49:53;;;;;;;12.38;6.95;;;;;;;19.29;55.18;101719.56;6099673;19;20082;-71
2023/06/12 03:51:58;;;;;;;13.38;7.05;;;;;;;19.24;54.98;101724.31;6100080;19;20047;-71
2023/06/12 03:54:05;;;;;;;11.23;6.45;;;;;;;19.25;54.98;101725.19;6099056;19;20472;-71
2023/06/12 03:56:10;;;;;;;11.18;6.75;;;;;;;19.23;55.14;101716.44;6096404;19;20026;-71
2023/06/12 03:58:21;;;;;;;10.80;7.20;;;;;;;19.24;55.27;101731.47;6098660;19;20117;-73
2023/06/12 04:00:27;;;;;;;13.30;6.65;;;;;;;19.21;55.35;101729.00;6100731;19;20028;-72
2023/06/12 04:02:35;;;;;;;11.80;6.95;;;;;;;19.17;55.57;101730.13;6099654;19;20051;-71
2023/06/12 04:04:41;;;;;;;9.90;6.57;;;;;;;19.13;56.04;101736.63;6099116;19;20006;-71
2023/06/12 04:06:47;;;;;;;10.60;6.93;;;;;;;19.13;55.89;101733.94;6100635;19;20497;-72
2023/06/12 04:08:56;;;;;;;11.55;7.07;;;;;;;19.15;55.83;101735.56;6100523;19;20803;-72
2023/06/12 04:11:02;;;;;;;12.13;7.60;;;;;;;19.15;56.09;101730.25;6100608;19;20007;-74
2023/06/12 04:13:07;;;;;;;15.68;6.28;;;;;;;19.19;56.00;101739.72;6097578;19;20268;-73
2023/06/12 04:15:12;;;;;;;10.85;6.75;;;;;;;19.20;56.04;101743.28;6102402;19;20007;-74
2023/06/12 04:17:18;;;;;;;13.65;6.80;;;;;;;19.19;56.06;101737.06;6097400;19;20021;-73
2023/06/12 04:19:28;;;;;;;11.02;7.45;;;;;;;19.22;56.22;101736.91;6105461;19;20015;-72
2023/06/12 04:21:33;;;;;;;11.40;6.72;;;;;;;19.19;56.14;101736.22;6104176;19;20003;-71
2023/06/12 04:23:41;;;;;;;9.77;6.70;;;;;;;19.20;56.41;101738.81;6100583;19;20459;-71
2023/06/12 04:25:48;;;;;;;9.73;6.72;;;;;;;19.24;56.35;101739.47;6103079;19;20014;-73
2023/06/12 04:27:57;;;;;;;12.07;7.25;;;;;;;19.29;56.38;101740.03;6102600;19;20007;-71
2023/06/12 04:30:02;;;;;;;11.45;6.80;;;;;;;19.34;55.92;101734.41;6101093;19;20014;-71
2023/06/12 04:32:09;;;;;;;9.75;6.22;;;;;;;19.41;55.75;101743.75;6102737;19;20033;-72
2023/06/12 04:34:15;;;;;;;10.10;6.45;;;;;;;19.48;55.63;101745.94;6099235;19;20003;-72
2023/06/12 04:36:24;;;;;;;11.00;6.55;;;;;;;19.60;55.50;101744.28;6097749;19;20058;-72
2023/06/12 04:38:30;;;;;;;10.50;6.80;;;;;;;19.70;54.89;101745.44;6097952;19;20017;-71
2023/06/12 04:40:37;;;;;;;11.32;7.28;;;;;;;19.84;54.37;101744.53;6099456;19;20038;-73
2023/06/12 04:42:43;;;;;;;9.52;6.65;;;;;;;20.00;54.15;101748.84;6094095;19;20002;-72
2023/06/12 04:44:48;;;;;;;12.75;6.88;;;;;;;20.15;53.49;101746.03;6100594;19;20015;-72
2023/06/12 04:46:55;;;;;;;11.15;7.13;;;;;;;20.26;52.74;101739.13;6100226;19;20051;-70
2023/06/12 04:49:00;;;;;;;10.60;6.38;;;;;;;20.33;52.78;101746.63;6099770;19;19999;-72
2023/06/12 04:51:05;;;;;;;11.82;6.68;;;;;;;20.49;51.75;101740.25;6100279;19;20018;-73
2023/06/12 04:53:17;;;;;;;11.88;6.82;;;;;;;20.65;51.47;101746.28;6092871;19;20183;-74
2023/06/12 04:55:23;;;;;;;11.43;6.35;;;;;;;20.79;51.13;101739.97;6097524;19;20355;-72
2023/06/12 04:57:32;;;;;;;11.43;7.32;;;;;;;20.91;50.95;101735.63;6095549;19;20115;-73
2023/06/12 04:59:39;;;;;;;11.52;6.50;;;;;;;21.07;50.06;101743.41;6093744;19;20136;-72
2023/06/12 05:01:45;;;;;;;11.13;6.38;;;;;;;21.18;50.14;101749.69;6099003;19;20003;-74
2023/06/12 05:03:52;;;;;;;11.32;6.85;;;;;;;21.30;49.80;101755.13;6096898;19;20070;-73
2023/06/12 05:06:00;;;;;;;9.63;6.53;;;;;;;21.35;49.40;101747.63;6100952;19;20463;-73
2023/06/12 05:08:05;;;;;;;11.13;6.85;;;;;;;21.47;48.64;101746.78;6097099;19;20018;-72
2023/06/12 05:10:15;;;;;;;10.00;6.15;;;;;;;21.68;48.39;101752.41;6097142;19;20445;-73
2023/06/12 05:12:23;;;;;;;10.05;6.53;;;;;;;21.85;48.38;101748.47;6096659;19;20011;-72
2023/06/12 05:14:29;;;;;;;13.25;6.35;;;;;;;22.04;47.47;101743.47;6095126;19;20030;-71
2023/06/12 05:16:34;;;;;;;12.13;6.28;;;;;;;22.12;47.25;101745.59;6095287;19;20495;-72
2023/06/12 05:18:40;;;;;;;9.55;6.10;;;;;;;22.18;46.86;101745.13;6097498;19;20015;-71
2023/06/12 05:20:45;;;;;;;10.20;6.10;;;;;;;22.42;46.56;101742.44;6095283;19;20013;-74
2023/06/12 05:22:50;;;;;;;12.15;6.45;;;;;;;22.71;45.92;101748.22;6100586;19;20006;-74
2023/06/12 05:24:55;;;;;;;9.13;6.40;;;;;;;22.77;45.41;101742.38;6096534;19;20410;-72
2023/06/12 05:27:03;;;;;;;12.18;6.90;;;;;;;22.93;44.98;101742.06;6097670;19;20019;-72
2023/06/12 05:29:09;;;;;;;11.05;6.15;;;;;;;23.05;44.67;101745.63;6095948;19;20010;-73
2023/06/12 05:31:15;;;;;;;11.02;6.85;;;;;;;23.06;44.04;101739.28;6096562;19;20530;-73
2023/06/12 05:33:21;;;;;;;10.77;7.28;;;;;;;23.11;44.25;101744.28;6097595;19;20034;-73
2023/06/12 05:35:27;;;;;;;12.55;6.82;;;;;;;23.33;43.79;101738.94;6100226;19;20018;-75
2023/06/12 05:37:34;;;;;;;10.43;6.38;;;;;;;23.18;43.73;101740.16;6095852;19;20117;-73
2023/06/12 05:39:42;;;;;;;10.98;6.75;;;;;;;23.17;43.84;101739.31;6095138;19;20550;-73
2023/06/12 05:41:47;;;;;;;10.35;6.07;;;;;;;23.34;43.69;101743.31;6096060;19;20018;-74
2023/06/12 05:43:59;;;;;;;11.90;6.60;;;;;;;23.31;43.60;101742.72;6094676;19;20154;-74
2023/06/12 05:46:04;;;;;;;12.50;6.22;;;;;;;23.36;43.38;101740.50;6095842;19;20154;-73
2023/06/12 05:48:11;;;;;;;10.77;6.57;;;;;;;23.41;43.03;101744.53;6097113;19;20681;-74
2023/06/12 05:50:17;;;;;;;9.70;6.40;;;;;;;23.69;42.71;101734.22;6090667;19;21198;-74
2023/06/12 05:52:23;;;;;;;10.55;6.88;;;;;;;23.60;43.10;101735.84;6088350;19;19999;-75
2023/06/12 05:54:32;;;;;;;10.57;6.43;;;;;;;23.56;43.11;101745.09;6094886;19;20012;-74
2023/06/12 05:56:37;;;;;;;10.82;6.47;;;;;;;23.70;43.00;101743.13;6098980;19;20021;-74
2023/06/12 05:58:46;;;;;;;9.50;6.75;;;;;;;23.71;42.48;101743.00;6102024;19;20022;-74
2023/06/12 06:00:55;;;;;;;10.57;6.18;;;;;;;23.86;42.60;101744.47;6102555;19;20007;-75
2023/06/12 06:03:04;;;;;;;10.43;6.13;;;;;;;23.74;42.28;101744.63;6099865;19;20015;-75
2023/06/12 06:05:12;;;;;;;10.90;6.85;;;;;;;23.63;42.97;101750.84;6094418;19;20110;-73
2023/06/12 06:07:23;;;;;;;13.32;7.30;;;;;;;23.56;42.66;101747.78;6096401;19;20011;-73
2023/06/12 06:09:32;;;;;;;12.10;6.25;;;;;;;23.97;42.38;101748.94;6094398;19;20084;-75
2023/06/12 06:11:40;;;;;;;13.55;7.15;;;;;;;23.96;42.13;101751.75;6097193;19;19998;-75
2023/06/12 06:13:46;;;;;;;11.43;6.82;;;;;;;24.25;42.11;101749.31;6092175;19;20385;-74
2023/06/12 06:15:54;;;;;;;11.32;6.60;;;;;;;24.56;41.34;101742.22;6088615;19;20932;-75
2023/06/12 06:18:02;;;;;;;10.43;6.68;;;;;;;24.70;40.97;101751.81;6090394;19;20011;-73
2023/06/12 06:20:08;;;;;;;9.18;6.20;;;;;;;25.10;40.26;101749.19;6096350;19;20027;-74
2023/06/12 06:22:17;;;;;;;11.10;6.50;;;;;;;25.35;39.68;101744.34;6101478;19;20010;-73
2023/06/12 06:24:25;;;;;;;11.02;6.65;;;;;;;25.31;39.17;101751.84;6099261;19;20706;-73
2023/06/12 06:26:34;;;;;;;11.13;6.60;;;;;;;25.39;39.72;101743.94;6100584;19;20011;-73
2023/06/12 06:28:39;;;;;;;12.80;6.47;;;;;;;25.40;39.65;101744.78;6102511;19;20018;-73
2023/06/12 06:30:47;;;;;;;11.45;6.63;;;;;;;25.54;39.60;101759.69;6100315;19;20010;-73
2023/06/12 06:32:54;;;;;;;11.95;7.05;;;;;;;25.78;38.41;101753.97;6098241;19;19998;-73
2023/06/12 06:35:02;;;;;;;11.68;6.63;;;;;;;26.13;38.54;101753.44;6098910;19;20010;-73
2023/06/12 06:37:08;;;;;;;10.55;6.93;;;;;;;25.52;39.22;101761.69;6104702;19;20577;-73
2023/06/12 06:39:13;;;;;;;11.32;6.35;;;;;;;25.79;39.38;101756.50;6104481;19;20529;-74
2023/06/12 06:41:26;;;;;;;10.57;6.32;;;;;;;25.93;39.24;101762.50;6108067;19;20015;-73
2023/06/12 06:43:32;;;;;;;12.80;7.10;;;;;;;26.26;38.16;101756.72;6106290;19;20383;-73
2023/06/12 06:45:38;;;;;;;13.07;7.10;;;;;;;26.35;37.30;101762.22;6105768;19;20453;-73
2023/06/12 06:47:44;;;;;;;11.45;6.30;;;;;;;26.48;37.76;101762.78;6109317;19;20042;-73
2023/06/12 06:49:56;;;;;;;10.48;6.38;;;;;;;26.67;36.76;101754.72;6105769;19;20038;-75
2023/06/12 06:52:03;;;;;;;12.77;7.20;;;;;;;26.78;36.78;101759.09;6094209;19;20002;-74
2023/06/12 06:54:11;;;;;;;10.95;6.38;;;;;;;26.81;36.49;101753.41;6091413;19;20012;-73
2023/06/12 06:56:17;;;;;;;10.55;6.57;;;;;;;27.20;36.62;101760.53;6096297;19;20007;-72
2023/06/12 06:58:22;;;;;;;12.68;6.57;;;;;;;26.96;36.48;101758.31;6100264;19;20103;-74
2023/06/12 07:00:28;;;;;;;12.15;6.50;;;;;;;27.11;35.43;101762.25;6099902;19;20007;-73
2023/06/12 07:02:33;;;;;;;10.32;5.90;;;;;;;27.10;34.95;101763.25;6101466;19;20221;-73
2023/06/12 07:04:38;;;;;;;12.23;6.82;;;;;;;27.23;34.94;101760.25;6105440;19;20293;-72
2023/06/12 07:06:47;;;;;;;10.60;6.50;;;;;;;27.33;34.98;101759.19;6104617;19;20456;-72
2023/06/12 07:08:54;;;;;;;12.32;6.45;;;;;;;27.29;35.13;101759.66;6105826;19;20400;-72
2023/06/12 07:11:02;;;;;;;10.65;6.32;;;;;;;27.58;34.24;101767.59;6103496;19;20098;-73
2023/06/12 07:13:09;;;;;;;11.05;6.60;;;;;;;27.66;34.57;101759.56;6100320;19;20628;-72
2023/06/12 07:15:14;;;;;;;10.27;6.45;;;;;;;28.12;34.86;101759.56;6100585;19;20560;-72
2023/06/12 07:17:22;;;;;;;11.93;6.38;;;;;;;28.02;32.89;101756.97;6098612;19;20025;-73
2023/06/12 07:19:28;;;;;;;11.73;6.65;;;;;;;28.15;33.66;101762.81;6098725;19;20470;-72
2023/06/12 07:21:33;;;;;;;10.70;6.50;;;;;;;27.95;34.10;101754.00;6103701;19;20085;-72
2023/06/12 07:23:41;;;;;;;10.48;5.88;;;;;;;28.02;33.38;101751.56;6098616;19;20014;-73
2023/06/12 07:25:52;;;;;;;9.60;6.32;;;;;;;27.82;33.72;101756.25;6096260;19;20003;-73
2023/06/12 07:27:57;;;;;;;11.55;6.47;;;;;;;28.11;33.39;101753.31;6098457;19;20146;-72
2023/06/12 07:30:03;;;;;;;12.68;6.68;;;;;;;28.45;32.71;101749.91;6097996;19;20034;-73
2023/06/12 07:32:09;;;;;;;11.43;6.55;;;;;;;28.77;32.41;101753.84;6103697;19;20375;-74
2023/06/12 07:34:16;;;;;;;11.15;6.53;;;;;;;28.61;32.36;101752.72;6103059;19;20661;-75
2023/06/12 07:36:21;;;;;;;9.82;6.18;;;;;;;29.07;31.78;101747.97;6097754;19;20007;-75
2023/06/12 07:38:27;;;;;;;13.82;7.50;;;;;;;28.99;32.11;101757.88;6103225;19;20006;-73
2023/06/12 07:40:35;;;;;;;11.88;6.40;;;;;;;29.18;31.22;101756.84;6100987;19;20392;-74
2023/06/12 07:42:42;;;;;;;11.60;6.45;;;;;;;29.21;30.51;101753.78;6103726;19;20039;-73
2023/06/12 07:44:50;;;;;;;13.15;6.80;;;;;;;29.22;30.99;101750.06;6099912;19;20011;-73
2023/06/12 07:46:55;;;;;;;10.32;6.40;;;;;;;29.35;30.53;101755.03;6097596;19;20007;-75
2023/06/12 07:49:00;;;;;;;10.68;6.25;;;;;;;29.80;29.12;101751.13;6102398;19;20779;-74
2023/06/12 07:51:06;;;;;;;11.52;6.88;;;;;;;29.33;29.64;101752.47;6097550;19;20030;-74
2023/06/12 07:53:11;;;;;;;11.60;6.85;;;;;;;29.27;29.66;101753.97;6096412;19;21365;-74
2023/06/12 07:55:41;;;;;;;10.82;6.97;;;;;;;29.67;29.23;101757.88;6092061;19;20015;-74
2023/06/12 07:57:47;;;;;;;10.30;6.35;;;;;;;29.46;28.75;101750.16;6098895;19;20030;-74
2023/06/12 07:59:54;;;;;;;10.32;6.70;;;;;;;29.82;29.14;101749.13;6101414;19;21221;-73
2023/06/12 08:02:01;;;;;;;9.73;6.63;;;;;;;29.53;29.88;101753.06;6100543;19;20039;-74
2023/06/12 08:04:11;;;;;;;11.07;6.45;;;;;;;29.85;29.40;101759.59;6099459;19;20006;-74
2023/06/12 08:06:18;;;;;;;11.38;6.25;;;;;;;30.01;29.48;101753.38;6100692;19;20438;-74
2023/06/12 08:08:25;;;;;;;10.75;6.57;;;;;;;29.70;28.87;101749.44;6098288;19;20559;-74
2023/06/12 08:10:30;;;;;;;10.73;6.82;;;;;;;30.01;28.63;101748.78;6100641;19;20003;-73
2023/06/12 08:12:38;;;;;;;11.52;6.85;;;;;;;30.23;28.75;101757.28;6098138;19;20003;-74
2023/06/12 08:14:46;;;;;;;10.88;6.70;;;;;;;30.22;29.50;101755.59;6096826;19;20019;-72
2023/06/12 08:16:52;;;;;;;10.82;7.13;;;;;;;30.64;28.73;101755.41;6098016;19;20593;-73
2023/06/12 08:18:57;;;;;;;11.07;7.00;;;;;;;30.36;29.23;101752.22;6095848;19;20007;-72
2023/06/12 08:21:06;;;;;;;10.20;7.30;;;;;;;30.13;28.95;101757.47;6099458;19;20522;-73
2023/06/12 08:23:11;;;;;;;11.05;7.15;;;;;;;30.29;28.66;101759.34;6101861;19;20009;-72
2023/06/12 08:25:17;;;;;;;10.18;6.88;;;;;;;30.80;28.21;101746.41;6104307;19;20570;-73
2023/06/12 08:27:23;;;;;;;9.70;6.85;;;;;;;30.35;27.26;101747.81;6101155;19;20494;-72
2023/06/12 08:29:41;;;;;;;11.23;6.97;;;;;;;30.57;27.59;101755.28;6083102;19;20007;-71
2023/06/12 08:31:46;;;;;;;10.88;6.80;;;;;;;31.04;27.03;101746.38;6093120;19;20028;-72
2023/06/12 08:33:51;;;;;;;11.07;6.90;;;;;;;30.90;27.10;101748.97;6104976;19;20042;-72
2023/06/12 08:35:56;;;;;;;11.60;6.90;;;;;;;30.97;27.56;101749.97;6102069;19;20574;-72
2023/06/12 08:38:01;;;;;;;11.63;6.60;;;;;;;30.91;26.91;101746.06;6105669;19;20566;-72
2023/06/12 08:40:08;;;;;;;12.25;6.78;;;;;;;31.23;27.01;101749.72;6103560;19;20113;-72
2023/06/12 08:42:18;;;;;;;10.70;6.68;;;;;;;31.39;26.46;101746.94;6103525;19;20018;-74
2023/06/12 08:44:25;;;;;;;14.18;7.78;;;;;;;31.13;27.57;101743.63;6103301;19;20390;-75
2023/06/12 08:46:36;;;;;;;10.60;6.63;;;;;;;31.29;25.23;101743.56;6106848;19;20355;-75
2023/06/12 08:48:43;;;;;;;12.10;6.78;;;;;;;31.11;25.34;101734.81;6107326;19;20082;-74
2023/06/12 08:50:55;;;;;;;10.15;7.10;;;;;;;31.10;25.24;101741.25;6103219;19;20035;-75
2023/06/12 08:53:02;;;;;;;10.60;6.57;;;;;;;31.73;25.23;101739.44;6101438;19;20129;-75
2023/06/12 08:55:11;;;;;;;10.77;6.70;;;;;;;31.55;24.37;101731.59;6102567;19;20015;-74
2023/06/12 08:57:19;;;;;;;10.32;6.82;;;;;;;31.76;25.23;101734.50;6099383;19;20035;-75
2023/06/12 08:59:24;;;;;;;12.50;6.90;;;;;;;31.54;24.60;101738.03;6103606;19;20464;-75
2023/06/12 09:01:36;;;;;;;10.23;6.75;;;;;;;31.30;24.55;101734.38;6104931;19;20798;-75
2023/06/12 09:03:45;;;;;;;11.82;6.55;;;;;;;31.16;24.68;101732.41;6097618;19;20007;-74
2023/06/12 09:05:56;;;;;;;10.60;7.18;;;;;;;31.56;23.81;101733.25;6105742;19;20046;-74
2023/06/12 09:08:04;;;;;;;11.15;6.63;;;;;;;31.68;23.50;101727.25;6104968;19;20006;-76
2023/06/12 09:10:13;;;;;;;10.30;6.75;;;;;;;31.74;24.55;101735.69;6091682;19;20010;-75
2023/06/12 09:12:19;;;;;;;11.98;7.15;;;;;;;31.93;24.72;101732.53;6095463;19;20038;-75
2023/06/12 09:14:27;;;;;;;10.30;6.32;;;;;;;31.56;24.49;101727.81;6101555;19;20569;-75
2023/06/12 09:16:38;;;;;;;10.10;6.57;;;;;;;31.97;23.46;101724.88;6084882;19;20015;-75
2023/06/12 09:18:54;;;;;;;11.25;6.60;;;;;;;31.91;23.93;101726.38;6099318;19;20503;-75
2023/06/12 09:21:07;;;;;;;9.15;6.43;;;;;;;32.03;23.72;101724.13;6100486;19;19999;-76
2023/06/12 09:23:14;;;;;;;11.27;7.25;;;;;;;32.02;23.30;101727.88;6097853;19;20316;-75
2023/06/12 09:25:22;;;;;;;10.00;5.93;;;;;;;32.16;23.94;101729.81;6095543;19;20038;-74
2023/06/12 09:27:27;;;;;;;13.07;6.65;;;;;;;32.35;23.05;101723.00;6097891;19;20002;-74
2023/06/12 09:29:34;;;;;;;10.15;6.70;;;;;;;32.12;23.58;101723.91;6097364;19;20051;-74
2023/06/12 09:31:44;;;;;;;13.00;7.50;;;;;;;32.14;23.01;101729.13;6071693;19;20006;-74
2023/06/12 09:33:54;;;;;;;10.93;6.53;;;;;;;31.99;23.29;101720.09;6098175;19;20005;-74
2023/06/12 09:36:02;;;;;;;9.93;6.63;;;;;;;32.56;22.02;101725.88;6099198;19;20006;-74
2023/06/12 09:38:07;;;;;;;11.68;6.60;;;;;;;32.03;22.87;101724.13;6096033;19;20047;-73
2023/06/12 09:40:18;;;;;;;11.85;6.45;;;;;;;32.08;22.64;101721.72;6099364;19;20034;-74
2023/06/12 09:42:24;;;;;;;11.45;6.80;;;;;;;31.58;23.41;101728.50;6100812;19;20025;-74
2023/06/12 09:44:30;;;;;;;10.35;6.82;;;;;;;31.98;22.37;101727.41;6095909;19;20256;-74
2023/06/12 09:46:37;;;;;;;10.27;6.53;;;;;;;32.11;22.44;101722.19;6095355;19;20345;-73